Terminal Aerodrome Forecast
Issued by NWS

Home | Current Version | Previous Version | Text Only | Print | Product List | Glossary On
Versions: 1 2 3 4 5 6 7 8 9 10 11 12 13 14 15 16 17 18 19 20 21 22 23 24 25
000
FTPA31 PHFO 271100
TAFOGG
TAF
PHOG 271139Z 2712/2812 19006KT P6SM FEW040
     FM272000 36013G19KT P6SM FEW030 SCT050
     FM280600 02008KT P6SM FEW040
      AMD LTD TO WX VIS AND WIND TIL 271600=

USA.gov is the U.S. government's official web portal to all federal, state and local government web resources and services.